sensor_id;sensor_type;location;lat;lon;timestamp;temperature;humidity
37956;DHT22;23776;51.592;7.180;2024-02-26T00:01:51;6.10;99.90
37956;DHT22;23776;51.592;7.180;2024-02-26T00:04:17;6.10;84.50
37956;DHT22;23776;51.592;7.180;2024-02-26T00:06:43;6.10;35.90
37956;DHT22;23776;51.592;7.180;2024-02-26T00:09:09;6.10;99.90
37956;DHT22;23776;51.592;7.180;2024-02-26T00:11:36;6.10;99.90
37956;DHT22;23776;51.592;7.180;2024-02-26T00:14:02;6.10;99.60
37956;DHT22;23776;51.592;7.180;2024-02-26T00:16:28;6.10;85.80
37956;DHT22;23776;51.592;7.180;2024-02-26T00:18:53;6.10;92.70
37956;DHT22;23776;51.592;7.180;2024-02-26T00:21:19;6.10;99.90
37956;DHT22;23776;51.592;7.180;2024-02-26T00:23:44;6.00;99.90
37956;DHT22;23776;51.592;7.180;2024-02-26T00:26:10;6.10;99.90
37956;DHT22;23776;51.592;7.180;2024-02-26T00:28:36;6.00;99.90
37956;DHT22;23776;51.592;7.180;2024-02-26T00:31:02;6.10;99.90
37956;DHT22;23776;51.592;7.180;2024-02-26T00:33:28;6.20;99.90
37956;DHT22;23776;51.592;7.180;2024-02-26T00:35:53;6.20;99.90
37956;DHT22;23776;51.592;7.180;2024-02-26T00:38:19;6.20;99.90
37956;DHT22;23776;51.592;7.180;2024-02-26T00:40:44;6.20;99.90
37956;DHT22;23776;51.592;7.180;2024-02-26T00:43:10;6.20;99.90
37956;DHT22;23776;51.592;7.180;2024-02-26T00:45:36;6.20;99.90
37956;DHT22;23776;51.592;7.180;2024-02-26T00:48:01;6.20;99.90
37956;DHT22;23776;51.592;7.180;2024-02-26T00:50:31;6.20;1.00
37956;DHT22;23776;51.592;7.180;2024-02-26T00:52:56;6.20;1.00
37956;DHT22;23776;51.592;7.180;2024-02-26T00:55:22;6.20;52.10
37956;DHT22;23776;51.592;7.180;2024-02-26T00:57:47;6.20;85.60
37956;DHT22;23776;51.592;7.180;2024-02-26T01:00:13;6.20;1.00
37956;DHT22;23776;51.592;7.180;2024-02-26T01:02:39;6.20;99.90
37956;DHT22;23776;51.592;7.180;2024-02-26T01:05:07;6.20;1.00
37956;DHT22;23776;51.592;7.180;2024-02-26T01:07:34;6.20;88.50
37956;DHT22;23776;51.592;7.180;2024-02-26T01:10:02;6.20;1.00
37956;DHT22;23776;51.592;7.180;2024-02-26T01:12:27;6.20;1.00
37956;DHT22;23776;51.592;7.180;2024-02-26T01:14:53;6.20;1.00
37956;DHT22;23776;51.592;7.180;2024-02-26T01:17:18;6.20;22.00
37956;DHT22;23776;51.592;7.180;2024-02-26T01:19:44;6.20;1.00
37956;DHT22;23776;51.592;7.180;2024-02-26T01:22:09;6.30;99.90
37956;DHT22;23776;51.592;7.180;2024-02-26T01:24:35;6.30;1.00
37956;DHT22;23776;51.592;7.180;2024-02-26T01:27:00;6.20;99.90
37956;DHT22;23776;51.592;7.180;2024-02-26T01:29:26;6.30;99.90
37956;DHT22;23776;51.592;7.180;2024-02-26T01:31:51;6.30;99.90
37956;DHT22;23776;51.592;7.180;2024-02-26T01:34:17;6.30;93.10
37956;DHT22;23776;51.592;7.180;2024-02-26T01:36:44;6.30;99.70
37956;DHT22;23776;51.592;7.180;2024-02-26T01:39:09;6.30;99.90
37956;DHT22;23776;51.592;7.180;2024-02-26T01:41:38;6.30;99.90
37956;DHT22;23776;51.592;7.180;2024-02-26T01:44:04;6.30;99.90
37956;DHT22;23776;51.592;7.180;2024-02-26T01:46:30;6.30;99.90
37956;DHT22;23776;51.592;7.180;2024-02-26T01:48:56;6.30;99.90
37956;DHT22;23776;51.592;7.180;2024-02-26T01:51:22;6.40;99.90
37956;DHT22;23776;51.592;7.180;2024-02-26T01:53:48;6.40;99.90
37956;DHT22;23776;51.592;7.180;2024-02-26T01:56:14;6.40;99.90
37956;DHT22;23776;51.592;7.180;2024-02-26T01:58:41;6.40;8.40
37956;DHT22;23776;51.592;7.180;2024-02-26T02:01:07;6.40;55.60
37956;DHT22;23776;51.592;7.180;2024-02-26T02:03:33;6.40;34.40
37956;DHT22;23776;51.592;7.180;2024-02-26T02:05:59;6.40;1.00
37956;DHT22;23776;51.592;7.180;2024-02-26T02:08:25;6.40;1.00
37956;DHT22;23776;51.592;7.180;2024-02-26T02:10:51;6.30;1.00
37956;DHT22;23776;51.592;7.180;2024-02-26T02:13:16;6.40;1.00
37956;DHT22;23776;51.592;7.180;2024-02-26T02:15:42;6.30;1.00
37956;DHT22;23776;51.592;7.180;2024-02-26T02:18:07;6.30;1.00
37956;DHT22;23776;51.592;7.180;2024-02-26T02:20:34;6.40;1.00
37956;DHT22;23776;51.592;7.180;2024-02-26T02:23:00;6.40;1.00
37956;DHT22;23776;51.592;7.180;2024-02-26T02:25:25;6.40;99.90
37956;DHT22;23776;51.592;7.180;2024-02-26T02:27:53;6.40;99.90
37956;DHT22;23776;51.592;7.180;2024-02-26T02:30:20;6.40;99.90
37956;DHT22;23776;51.592;7.180;2024-02-26T02:32:46;6.40;99.90
37956;DHT22;23776;51.592;7.180;2024-02-26T02:35:12;6.40;99.90
37956;DHT22;23776;51.592;7.180;2024-02-26T02:37:37;6.40;99.90
37956;DHT22;23776;51.592;7.180;2024-02-26T02:40:03;6.40;99.90
37956;DHT22;23776;51.592;7.180;2024-02-26T02:42:30;6.40;99.90
37956;DHT22;23776;51.592;7.180;2024-02-26T02:44:56;6.40;77.80
37956;DHT22;23776;51.592;7.180;2024-02-26T02:47:21;6.40;1.00
37956;DHT22;23776;51.592;7.180;2024-02-26T02:49:47;6.40;99.90
37956;DHT22;23776;51.592;7.180;2024-02-26T02:52:12;6.50;99.90
37956;DHT22;23776;51.592;7.180;2024-02-26T02:54:38;6.50;1.00
37956;DHT22;23776;51.592;7.180;2024-02-26T02:57:05;6.50;99.90
37956;DHT22;23776;51.592;7.180;2024-02-26T02:59:31;6.50;84.80
37956;DHT22;23776;51.592;7.180;2024-02-26T03:01:56;6.50;1.00
37956;DHT22;23776;51.592;7.180;2024-02-26T03:04:22;6.50;1.00
37956;DHT22;23776;51.592;7.180;2024-02-26T03:06:47;6.60;13.30
37956;DHT22;23776;51.592;7.180;2024-02-26T03:09:13;6.50;21.50
37956;DHT22;23776;51.592;7.180;2024-02-26T03:11:39;6.50;99.90
37956;DHT22;23776;51.592;7.180;2024-02-26T03:14:05;6.50;99.90
37956;DHT22;23776;51.592;7.180;2024-02-26T03:16:31;6.50;99.90
37956;DHT22;23776;51.592;7.180;2024-02-26T03:18:57;8.30;99.90
37956;DHT22;23776;51.592;7.180;2024-02-26T03:21:24;6.50;99.90
37956;DHT22;23776;51.592;7.180;2024-02-26T03:23:50;6.40;1.00
37956;DHT22;23776;51.592;7.180;2024-02-26T03:26:15;6.50;1.00
37956;DHT22;23776;51.592;7.180;2024-02-26T03:28:41;6.40;1.00
37956;DHT22;23776;51.592;7.180;2024-02-26T03:31:06;6.40;23.40
37956;DHT22;23776;51.592;7.180;2024-02-26T03:33:32;6.40;1.00
37956;DHT22;23776;51.592;7.180;2024-02-26T03:35:57;6.30;99.90
37956;DHT22;23776;51.592;7.180;2024-02-26T03:38:23;6.30;99.90
37956;DHT22;23776;51.592;7.180;2024-02-26T03:40:48;6.30;99.90
37956;DHT22;23776;51.592;7.180;2024-02-26T03:43:14;6.30;1.00
37956;DHT22;23776;51.592;7.180;2024-02-26T03:45:40;6.40;99.90
37956;DHT22;23776;51.592;7.180;2024-02-26T03:48:06;6.30;1.00
37956;DHT22;23776;51.592;7.180;2024-02-26T03:50:31;6.30;1.00
37956;DHT22;23776;51.592;7.180;2024-02-26T03:52:57;6.30;99.90
37956;DHT22;23776;51.592;7.180;2024-02-26T03:55:23;6.30;99.90
37956;DHT22;23776;51.592;7.180;2024-02-26T03:57:51;6.30;1.00
37956;DHT22;23776;51.592;7.180;2024-02-26T04:00:17;6.20;1.00
37956;DHT22;23776;51.592;7.180;2024-02-26T04:02:42;6.20;99.90
37956;DHT22;23776;51.592;7.180;2024-02-26T04:05:11;6.20;99.90
37956;DHT22;23776;51.592;7.180;2024-02-26T04:07:37;6.20;99.90
37956;DHT22;23776;51.592;7.180;2024-02-26T04:10:03;6.20;99.90
37956;DHT22;23776;51.592;7.180;2024-02-26T04:12:30;6.20;99.90
37956;DHT22;23776;51.592;7.180;2024-02-26T04:14:56;6.20;99.90
37956;DHT22;23776;51.592;7.180;2024-02-26T04:17:21;6.20;1.00
37956;DHT22;23776;51.592;7.180;2024-02-26T04:19:47;6.10;72.90
37956;DHT22;23776;51.592;7.180;2024-02-26T04:22:12;6.10;99.90
37956;DHT22;23776;51.592;7.180;2024-02-26T04:24:38;6.00;99.90
37956;DHT22;23776;51.592;7.180;2024-02-26T04:27:03;6.00;99.90
37956;DHT22;23776;51.592;7.180;2024-02-26T04:29:29;6.00;99.90
37956;DHT22;23776;51.592;7.180;2024-02-26T04:31:56;5.90;99.90
37956;DHT22;23776;51.592;7.180;2024-02-26T04:34:21;5.80;99.90
37956;DHT22;23776;51.592;7.180;2024-02-26T04:36:47;5.90;99.90
37956;DHT22;23776;51.592;7.180;2024-02-26T04:39:13;5.80;1.00
37956;DHT22;23776;51.592;7.180;2024-02-26T04:41:39;5.80;1.00
37956;DHT22;23776;51.592;7.180;2024-02-26T04:44:04;5.80;1.00
37956;DHT22;23776;51.592;7.180;2024-02-26T04:46:30;5.80;1.00
37956;DHT22;23776;51.592;7.180;2024-02-26T04:48:56;5.80;1.00
37956;DHT22;23776;51.592;7.180;2024-02-26T04:51:21;7.60;1.00
37956;DHT22;23776;51.592;7.180;2024-02-26T04:53:47;5.80;1.00
37956;DHT22;23776;51.592;7.180;2024-02-26T04:56:12;5.80;1.00
37956;DHT22;23776;51.592;7.180;2024-02-26T04:58:38;5.80;1.00
37956;DHT22;23776;51.592;7.180;2024-02-26T05:01:05;5.80;1.00
37956;DHT22;23776;51.592;7.180;2024-02-26T05:03:30;5.70;1.00
37956;DHT22;23776;51.592;7.180;2024-02-26T05:05:56;5.70;1.00
37956;DHT22;23776;51.592;7.180;2024-02-26T05:08:23;5.70;1.00
37956;DHT22;23776;51.592;7.180;2024-02-26T05:10:49;5.70;1.00
37956;DHT22;23776;51.592;7.180;2024-02-26T05:13:14;5.70;1.00
37956;DHT22;23776;51.592;7.180;2024-02-26T05:15:41;5.70;1.00
37956;DHT22;23776;51.592;7.180;2024-02-26T05:18:07;5.70;1.00
37956;DHT22;23776;51.592;7.180;2024-02-26T05:20:33;5.70;1.00
37956;DHT22;23776;51.592;7.180;2024-02-26T05:23:01;5.60;1.00
37956;DHT22;23776;51.592;7.180;2024-02-26T05:25:27;5.60;1.00
37956;DHT22;23776;51.592;7.180;2024-02-26T05:27:52;5.60;1.00
37956;DHT22;23776;51.592;7.180;2024-02-26T05:30:18;5.70;1.00
37956;DHT22;23776;51.592;7.180;2024-02-26T05:32:43;5.60;1.00
37956;DHT22;23776;51.592;7.180;2024-02-26T05:35:09;5.60;1.00
37956;DHT22;23776;51.592;7.180;2024-02-26T05:37:35;5.70;1.00
37956;DHT22;23776;51.592;7.180;2024-02-26T05:40:00;5.60;1.00
37956;DHT22;23776;51.592;7.180;2024-02-26T05:42:26;5.70;1.00
37956;DHT22;23776;51.592;7.180;2024-02-26T05:44:51;5.60;1.00
37956;DHT22;23776;51.592;7.180;2024-02-26T05:47:17;5.60;1.00
37956;DHT22;23776;51.592;7.180;2024-02-26T05:49:43;5.60;1.00
37956;DHT22;23776;51.592;7.180;2024-02-26T05:52:09;5.60;1.00
37956;DHT22;23776;51.592;7.180;2024-02-26T05:54:34;5.60;1.00
37956;DHT22;23776;51.592;7.180;2024-02-26T05:57:01;5.60;1.00
37956;DHT22;23776;51.592;7.180;2024-02-26T05:59:27;5.60;1.00
37956;DHT22;23776;51.592;7.180;2024-02-26T06:01:52;5.60;1.00
37956;DHT22;23776;51.592;7.180;2024-02-26T06:04:18;5.60;1.00
37956;DHT22;23776;51.592;7.180;2024-02-26T06:06:44;5.60;1.00
37956;DHT22;23776;51.592;7.180;2024-02-26T06:09:11;5.60;1.00
37956;DHT22;23776;51.592;7.180;2024-02-26T06:11:37;5.50;1.00
37956;DHT22;23776;51.592;7.180;2024-02-26T06:14:02;5.50;1.00
37956;DHT22;23776;51.592;7.180;2024-02-26T06:16:28;5.50;2.00
37956;DHT22;23776;51.592;7.180;2024-02-26T06:18:53;5.50;2.80
37956;DHT22;23776;51.592;7.180;2024-02-26T06:21:19;5.50;3.20
37956;DHT22;23776;51.592;7.180;2024-02-26T06:23:44;5.50;8.30
37956;DHT22;23776;51.592;7.180;2024-02-26T06:26:10;5.50;7.00
37956;DHT22;23776;51.592;7.180;2024-02-26T06:28:35;5.50;9.10
37956;DHT22;23776;51.592;7.180;2024-02-26T06:31:02;5.50;9.50
37956;DHT22;23776;51.592;7.180;2024-02-26T06:33:28;5.50;16.10
37956;DHT22;23776;51.592;7.180;2024-02-26T06:35:53;5.50;15.90
37956;DHT22;23776;51.592;7.180;2024-02-26T06:38:19;5.50;13.70
37956;DHT22;23776;51.592;7.180;2024-02-26T06:40:45;5.60;16.60
37956;DHT22;23776;51.592;7.180;2024-02-26T06:43:11;5.50;16.20
37956;DHT22;23776;51.592;7.180;2024-02-26T06:45:36;5.50;17.10
37956;DHT22;23776;51.592;7.180;2024-02-26T06:48:02;5.60;18.60
37956;DHT22;23776;51.592;7.180;2024-02-26T06:50:28;5.60;16.10
37956;DHT22;23776;51.592;7.180;2024-02-26T06:52:53;5.60;16.50
37956;DHT22;23776;51.592;7.180;2024-02-26T06:55:19;5.60;15.80
37956;DHT22;23776;51.592;7.180;2024-02-26T06:57:45;5.60;17.50
37956;DHT22;23776;51.592;7.180;2024-02-26T07:00:11;5.60;23.90
37956;DHT22;23776;51.592;7.180;2024-02-26T07:02:40;5.60;26.20
37956;DHT22;23776;51.592;7.180;2024-02-26T07:05:06;5.70;21.30
37956;DHT22;23776;51.592;7.180;2024-02-26T07:07:31;5.70;19.00
37956;DHT22;23776;51.592;7.180;2024-02-26T07:09:57;5.80;19.40
37956;DHT22;23776;51.592;7.180;2024-02-26T07:12:23;5.70;13.10
37956;DHT22;23776;51.592;7.180;2024-02-26T07:14:49;5.80;16.30
37956;DHT22;23776;51.592;7.180;2024-02-26T07:17:16;5.80;11.70
37956;DHT22;23776;51.592;7.180;2024-02-26T07:19:42;5.80;10.60
37956;DHT22;23776;51.592;7.180;2024-02-26T07:22:08;6.10;7.40
37956;DHT22;23776;51.592;7.180;2024-02-26T07:24:33;5.80;6.90
37956;DHT22;23776;51.592;7.180;2024-02-26T07:26:59;6.80;8.00
37956;DHT22;23776;51.592;7.180;2024-02-26T07:29:24;5.80;7.60
37956;DHT22;23776;51.592;7.180;2024-02-26T07:31:50;5.80;4.50
37956;DHT22;23776;51.592;7.180;2024-02-26T07:34:16;5.80;1.00
37956;DHT22;23776;51.592;7.180;2024-02-26T07:36:42;5.80;6.30
37956;DHT22;23776;51.592;7.180;2024-02-26T07:39:07;5.80;1.50
37956;DHT22;23776;51.592;7.180;2024-02-26T07:41:33;5.80;2.30
37956;DHT22;23776;51.592;7.180;2024-02-26T07:43:58;5.80;1.70
37956;DHT22;23776;51.592;7.180;2024-02-26T07:46:24;5.90;1.00
37956;DHT22;23776;51.592;7.180;2024-02-26T07:48:50;5.90;1.00
37956;DHT22;23776;51.592;7.180;2024-02-26T07:51:15;5.90;1.00
37956;DHT22;23776;51.592;7.180;2024-02-26T07:53:41;6.00;1.00
37956;DHT22;23776;51.592;7.180;2024-02-26T07:56:06;6.00;1.00
37956;DHT22;23776;51.592;7.180;2024-02-26T07:58:33;5.90;1.00
37956;DHT22;23776;51.592;7.180;2024-02-26T08:00:59;6.10;1.00
37956;DHT22;23776;51.592;7.180;2024-02-26T08:03:24;6.10;1.00
37956;DHT22;23776;51.592;7.180;2024-02-26T08:05:51;6.20;1.00
37956;DHT22;23776;51.592;7.180;2024-02-26T08:08:17;6.10;1.00
37956;DHT22;23776;51.592;7.180;2024-02-26T08:10:42;6.10;1.00
37956;DHT22;23776;51.592;7.180;2024-02-26T08:13:08;6.10;1.00
37956;DHT22;23776;51.592;7.180;2024-02-26T08:15:35;6.10;1.00
37956;DHT22;23776;51.592;7.180;2024-02-26T08:18:01;6.20;1.00
37956;DHT22;23776;51.592;7.180;2024-02-26T08:20:30;6.20;1.00
37956;DHT22;23776;51.592;7.180;2024-02-26T08:22:56;6.20;1.00
37956;DHT22;23776;51.592;7.180;2024-02-26T08:25:22;6.60;1.00
37956;DHT22;23776;51.592;7.180;2024-02-26T08:27:48;6.20;1.00
37956;DHT22;23776;51.592;7.180;2024-02-26T08:30:17;6.20;1.00
37956;DHT22;23776;51.592;7.180;2024-02-26T08:32:43;5.10;1.00
37956;DHT22;23776;51.592;7.180;2024-02-26T08:35:09;6.30;1.00
37956;DHT22;23776;51.592;7.180;2024-02-26T08:37:35;6.20;1.00
37956;DHT22;23776;51.592;7.180;2024-02-26T08:40:00;6.30;1.00
37956;DHT22;23776;51.592;7.180;2024-02-26T08:42:26;6.30;1.00
37956;DHT22;23776;51.592;7.180;2024-02-26T08:44:52;6.30;1.00
37956;DHT22;23776;51.592;7.180;2024-02-26T08:47:19;6.30;1.00
37956;DHT22;23776;51.592;7.180;2024-02-26T08:49:45;6.30;1.00
37956;DHT22;23776;51.592;7.180;2024-02-26T08:52:11;6.40;1.00
37956;DHT22;23776;51.592;7.180;2024-02-26T08:54:36;6.40;1.00
37956;DHT22;23776;51.592;7.180;2024-02-26T08:57:02;6.50;1.00
37956;DHT22;23776;51.592;7.180;2024-02-26T08:59:28;6.50;1.00
37956;DHT22;23776;51.592;7.180;2024-02-26T09:01:54;6.50;1.00
37956;DHT22;23776;51.592;7.180;2024-02-26T09:04:20;6.50;1.00
37956;DHT22;23776;51.592;7.180;2024-02-26T09:06:45;6.50;1.00
37956;DHT22;23776;51.592;7.180;2024-02-26T09:09:11;6.60;1.00
37956;DHT22;23776;51.592;7.180;2024-02-26T09:11:37;6.60;1.00
37956;DHT22;23776;51.592;7.180;2024-02-26T09:14:02;6.60;1.00
37956;DHT22;23776;51.592;7.180;2024-02-26T09:16:31;6.70;1.00
37956;DHT22;23776;51.592;7.180;2024-02-26T09:18:57;6.70;1.00
37956;DHT22;23776;51.592;7.180;2024-02-26T09:21:23;6.70;1.00
37956;DHT22;23776;51.592;7.180;2024-02-26T09:23:50;6.70;1.00
37956;DHT22;23776;51.592;7.180;2024-02-26T09:26:16;6.80;1.00
37956;DHT22;23776;51.592;7.180;2024-02-26T09:28:42;6.80;1.00
37956;DHT22;23776;51.592;7.180;2024-02-26T09:31:08;6.80;1.00
37956;DHT22;23776;51.592;7.180;2024-02-26T09:33:33;6.80;1.00
37956;DHT22;23776;51.592;7.180;2024-02-26T09:35:59;6.80;1.00
37956;DHT22;23776;51.592;7.180;2024-02-26T09:38:28;6.80;1.00
37956;DHT22;23776;51.592;7.180;2024-02-26T09:40:58;6.80;1.00
37956;DHT22;23776;51.592;7.180;2024-02-26T09:43:24;6.90;1.00
37956;DHT22;23776;51.592;7.180;2024-02-26T09:45:54;6.90;1.00
37956;DHT22;23776;51.592;7.180;2024-02-26T09:48:22;6.90;1.00
37956;DHT22;23776;51.592;7.180;2024-02-26T09:50:49;6.90;1.00
37956;DHT22;23776;51.592;7.180;2024-02-26T09:53:14;6.90;1.00
37956;DHT22;23776;51.592;7.180;2024-02-26T09:55:42;6.90;1.00
37956;DHT22;23776;51.592;7.180;2024-02-26T09:58:08;6.90;1.00
37956;DHT22;23776;51.592;7.180;2024-02-26T10:00:37;7.00;1.00
37956;DHT22;23776;51.592;7.180;2024-02-26T10:03:05;6.90;1.00
37956;DHT22;23776;51.592;7.180;2024-02-26T10:05:35;7.00;1.00
37956;DHT22;23776;51.592;7.180;2024-02-26T10:08:04;7.00;1.00
37956;DHT22;23776;51.592;7.180;2024-02-26T10:10:30;7.10;1.00
37956;DHT22;23776;51.592;7.180;2024-02-26T10:12:57;7.10;1.00
37956;DHT22;23776;51.592;7.180;2024-02-26T10:15:24;7.10;1.00
37956;DHT22;23776;51.592;7.180;2024-02-26T10:17:49;8.50;1.00
37956;DHT22;23776;51.592;7.180;2024-02-26T10:20:19;7.20;1.00
37956;DHT22;23776;51.592;7.180;2024-02-26T10:22:47;7.30;1.00
37956;DHT22;23776;51.592;7.180;2024-02-26T10:25:13;7.30;1.00
37956;DHT22;23776;51.592;7.180;2024-02-26T10:27:41;7.40;1.00
37956;DHT22;23776;51.592;7.180;2024-02-26T10:30:28;7.40;1.00
37956;DHT22;23776;51.592;7.180;2024-02-26T10:32:54;7.50;1.00
37956;DHT22;23776;51.592;7.180;2024-02-26T10:35:20;7.50;1.00
37956;DHT22;23776;51.592;7.180;2024-02-26T10:37:46;7.50;1.00
37956;DHT22;23776;51.592;7.180;2024-02-26T10:40:13;7.50;1.00
37956;DHT22;23776;51.592;7.180;2024-02-26T10:42:40;7.60;1.00
37956;DHT22;23776;51.592;7.180;2024-02-26T10:45:06;7.60;99.90
37956;DHT22;23776;51.592;7.180;2024-02-26T10:47:34;7.60;99.90
37956;DHT22;23776;51.592;7.180;2024-02-26T10:50:03;7.60;99.90
37956;DHT22;23776;51.592;7.180;2024-02-26T10:52:31;7.70;99.90
37956;DHT22;23776;51.592;7.180;2024-02-26T10:55:01;7.70;99.90
37956;DHT22;23776;51.592;7.180;2024-02-26T10:57:31;7.70;99.90
37956;DHT22;23776;51.592;7.180;2024-02-26T10:59:59;7.70;99.90
37956;DHT22;23776;51.592;7.180;2024-02-26T11:02:26;7.70;99.90
37956;DHT22;23776;51.592;7.180;2024-02-26T11:04:52;7.70;99.90
37956;DHT22;23776;51.592;7.180;2024-02-26T11:07:19;7.70;99.90
37956;DHT22;23776;51.592;7.180;2024-02-26T11:09:46;7.70;99.90
37956;DHT22;23776;51.592;7.180;2024-02-26T11:12:17;7.80;99.90
37956;DHT22;23776;51.592;7.180;2024-02-26T11:14:46;7.80;99.90
37956;DHT22;23776;51.592;7.180;2024-02-26T11:17:13;7.80;99.90
37956;DHT22;23776;51.592;7.180;2024-02-26T11:19:39;7.80;99.90
37956;DHT22;23776;51.592;7.180;2024-02-26T11:22:07;7.90;99.90
37956;DHT22;23776;51.592;7.180;2024-02-26T11:24:32;7.80;99.90
37956;DHT22;23776;51.592;7.180;2024-02-26T11:27:01;7.70;99.90
37956;DHT22;23776;51.592;7.180;2024-02-26T11:29:33;7.80;99.90
37956;DHT22;23776;51.592;7.180;2024-02-26T11:32:00;7.80;99.90
37956;DHT22;23776;51.592;7.180;2024-02-26T11:34:26;7.70;99.90
37956;DHT22;23776;51.592;7.180;2024-02-26T11:36:53;7.70;99.90
37956;DHT22;23776;51.592;7.180;2024-02-26T11:39:19;7.70;99.90
37956;DHT22;23776;51.592;7.180;2024-02-26T11:41:45;7.80;99.90
37956;DHT22;23776;51.592;7.180;2024-02-26T11:44:12;7.80;99.90
37956;DHT22;23776;51.592;7.180;2024-02-26T11:46:42;8.00;99.90
37956;DHT22;23776;51.592;7.180;2024-02-26T11:51:57;8.10;99.90
37956;DHT22;23776;51.592;7.180;2024-02-26T11:54:58;8.20;99.90
37956;DHT22;23776;51.592;7.180;2024-02-26T12:00:10;8.30;99.90
37956;DHT22;23776;51.592;7.180;2024-02-26T12:02:52;8.30;99.90
37956;DHT22;23776;51.592;7.180;2024-02-26T12:05:27;6.50;99.90
37956;DHT22;23776;51.592;7.180;2024-02-26T12:08:03;8.50;99.90
37956;DHT22;23776;51.592;7.180;2024-02-26T12:10:33;8.70;13.70
37956;DHT22;23776;51.592;7.180;2024-02-26T12:15:38;8.70;1.00
37956;DHT22;23776;51.592;7.180;2024-02-26T12:18:06;8.70;1.00
37956;DHT22;23776;51.592;7.180;2024-02-26T12:20:33;8.70;1.00
37956;DHT22;23776;51.592;7.180;2024-02-26T12:22:59;8.80;1.00
37956;DHT22;23776;51.592;7.180;2024-02-26T12:25:27;8.70;1.00
37956;DHT22;23776;51.592;7.180;2024-02-26T12:27:56;8.80;1.00
37956;DHT22;23776;51.592;7.180;2024-02-26T12:30:22;8.70;1.00
37956;DHT22;23776;51.592;7.180;2024-02-26T12:32:50;8.60;1.00
37956;DHT22;23776;51.592;7.180;2024-02-26T12:35:17;8.60;73.70
37956;DHT22;23776;51.592;7.180;2024-02-26T12:37:43;8.50;52.80
37956;DHT22;23776;51.592;7.180;2024-02-26T12:40:10;8.40;77.40
37956;DHT22;23776;51.592;7.180;2024-02-26T12:42:36;8.50;61.30
37956;DHT22;23776;51.592;7.180;2024-02-26T12:45:07;8.60;86.40
37956;DHT22;23776;51.592;7.180;2024-02-26T12:47:37;8.50;99.90
37956;DHT22;23776;51.592;7.180;2024-02-26T12:50:03;8.70;97.20
37956;DHT22;23776;51.592;7.180;2024-02-26T12:52:33;8.70;29.20
37956;DHT22;23776;51.592;7.180;2024-02-26T12:55:00;8.70;1.00
37956;DHT22;23776;51.592;7.180;2024-02-26T12:57:26;8.80;99.90
37956;DHT22;23776;51.592;7.180;2024-02-26T12:59:54;8.70;1.00
37956;DHT22;23776;51.592;7.180;2024-02-26T13:02:20;8.60;1.00
37956;DHT22;23776;51.592;7.180;2024-02-26T13:04:45;8.70;1.00
37956;DHT22;23776;51.592;7.180;2024-02-26T13:07:11;8.60;1.00
37956;DHT22;23776;51.592;7.180;2024-02-26T13:09:37;8.60;24.50
37956;DHT22;23776;51.592;7.180;2024-02-26T13:12:06;8.60;1.00
37956;DHT22;23776;51.592;7.180;2024-02-26T13:14:32;8.60;1.00
37956;DHT22;23776;51.592;7.180;2024-02-26T13:17:00;8.60;1.00
37956;DHT22;23776;51.592;7.180;2024-02-26T13:19:26;8.50;1.00
37956;DHT22;23776;51.592;7.180;2024-02-26T13:21:53;8.40;1.00
37956;DHT22;23776;51.592;7.180;2024-02-26T13:24:20;8.30;1.00
37956;DHT22;23776;51.592;7.180;2024-02-26T13:26:46;8.30;68.00
37956;DHT22;23776;51.592;7.180;2024-02-26T13:29:20;8.30;99.90
37956;DHT22;23776;51.592;7.180;2024-02-26T13:31:46;8.30;97.20
37956;DHT22;23776;51.592;7.180;2024-02-26T13:34:23;8.30;71.50
37956;DHT22;23776;51.592;7.180;2024-02-26T13:36:50;8.30;16.10
37956;DHT22;23776;51.592;7.180;2024-02-26T13:39:22;8.30;8.70
37956;DHT22;23776;51.592;7.180;2024-02-26T13:41:48;8.30;1.00
37956;DHT22;23776;51.592;7.180;2024-02-26T13:44:13;8.20;1.00
37956;DHT22;23776;51.592;7.180;2024-02-26T13:46:40;8.20;1.00
37956;DHT22;23776;51.592;7.180;2024-02-26T13:49:09;8.20;1.00
37956;DHT22;23776;51.592;7.180;2024-02-26T13:51:35;8.20;1.00
37956;DHT22;23776;51.592;7.180;2024-02-26T13:54:01;8.20;1.00
37956;DHT22;23776;51.592;7.180;2024-02-26T13:56:27;8.10;45.30
37956;DHT22;23776;51.592;7.180;2024-02-26T13:58:53;8.10;44.40
37956;DHT22;23776;51.592;7.180;2024-02-26T14:01:18;8.20;66.60
37956;DHT22;23776;51.592;7.180;2024-02-26T14:03:44;8.60;23.10
37956;DHT22;23776;51.592;7.180;2024-02-26T14:06:10;8.20;1.00
37956;DHT22;23776;51.592;7.180;2024-02-26T14:08:36;8.20;4.50
37956;DHT22;23776;51.592;7.180;2024-02-26T14:11:01;8.20;1.00
37956;DHT22;23776;51.592;7.180;2024-02-26T14:13:27;8.30;1.00
37956;DHT22;23776;51.592;7.180;2024-02-26T14:15:52;10.40;1.00
37956;DHT22;23776;51.592;7.180;2024-02-26T14:18:18;8.30;1.00
37956;DHT22;23776;51.592;7.180;2024-02-26T14:20:43;8.30;1.00
37956;DHT22;23776;51.592;7.180;2024-02-26T14:23:10;8.20;1.00
37956;DHT22;23776;51.592;7.180;2024-02-26T14:25:36;8.20;1.00
37956;DHT22;23776;51.592;7.180;2024-02-26T14:28:02;8.20;1.00
37956;DHT22;23776;51.592;7.180;2024-02-26T14:30:28;8.10;99.90
37956;DHT22;23776;51.592;7.180;2024-02-26T14:32:54;8.20;1.00
37956;DHT22;23776;51.592;7.180;2024-02-26T14:35:20;8.20;99.90
37956;DHT22;23776;51.592;7.180;2024-02-26T14:37:46;8.10;99.90
37956;DHT22;23776;51.592;7.180;2024-02-26T14:40:13;8.10;99.90
37956;DHT22;23776;51.592;7.180;2024-02-26T14:42:39;8.10;1.00
37956;DHT22;23776;51.592;7.180;2024-02-26T14:45:05;8.00;99.90
37956;DHT22;23776;51.592;7.180;2024-02-26T14:47:34;8.00;99.90
37956;DHT22;23776;51.592;7.180;2024-02-26T14:50:00;8.20;99.90
37956;DHT22;23776;51.592;7.180;2024-02-26T14:52:25;8.10;99.90
37956;DHT22;23776;51.592;7.180;2024-02-26T14:54:51;8.00;99.90
37956;DHT22;23776;51.592;7.180;2024-02-26T14:57:17;8.00;99.90
37956;DHT22;23776;51.592;7.180;2024-02-26T14:59:42;8.10;99.90
37956;DHT22;23776;51.592;7.180;2024-02-26T15:02:09;8.10;99.90
37956;DHT22;23776;51.592;7.180;2024-02-26T15:04:36;8.10;99.90
37956;DHT22;23776;51.592;7.180;2024-02-26T15:07:02;8.20;92.70
37956;DHT22;23776;51.592;7.180;2024-02-26T15:09:27;8.20;69.00
37956;DHT22;23776;51.592;7.180;2024-02-26T15:11:53;8.20;1.00
37956;DHT22;23776;51.592;7.180;2024-02-26T15:14:18;8.20;99.90
37956;DHT22;23776;51.592;7.180;2024-02-26T15:16:44;9.30;1.00
37956;DHT22;23776;51.592;7.180;2024-02-26T15:19:09;8.30;99.90
37956;DHT22;23776;51.592;7.180;2024-02-26T15:21:42;8.30;99.90
37956;DHT22;23776;51.592;7.180;2024-02-26T15:24:08;8.30;99.90
37956;DHT22;23776;51.592;7.180;2024-02-26T15:26:34;8.40;99.90
37956;DHT22;23776;51.592;7.180;2024-02-26T15:29:00;8.60;99.90
37956;DHT22;23776;51.592;7.180;2024-02-26T15:31:25;8.40;99.90
37956;DHT22;23776;51.592;7.180;2024-02-26T15:33:51;8.40;99.90
37956;DHT22;23776;51.592;7.180;2024-02-26T15:36:16;8.40;99.90
37956;DHT22;23776;51.592;7.180;2024-02-26T15:38:42;8.40;99.90
37956;DHT22;23776;51.592;7.180;2024-02-26T15:41:12;8.40;99.90
37956;DHT22;23776;51.592;7.180;2024-02-26T15:43:38;8.40;99.90
37956;DHT22;23776;51.592;7.180;2024-02-26T15:46:04;8.40;99.90
37956;DHT22;23776;51.592;7.180;2024-02-26T15:48:31;8.30;99.90
37956;DHT22;23776;51.592;7.180;2024-02-26T15:50:56;8.30;99.90
37956;DHT22;23776;51.592;7.180;2024-02-26T15:53:22;8.30;99.90
37956;DHT22;23776;51.592;7.180;2024-02-26T15:55:48;8.30;1.00
37956;DHT22;23776;51.592;7.180;2024-02-26T15:58:13;8.20;99.90